Silver Cliff, Colorado
Current Conditions -  °F | °C
As of 6:25 AM on Thursday 27 Nov 2014 (Local Time) from K1V6 Reporting Station
Clear Clear  
Wind Chill: 38°   Ceiling: Unl
Heat Index: 45°   Visibility: 10mi
Dew Point: 21°   Wind: 15mph
Humidity: 39%   Direction: 270°W
Pressure: 30.29"   Gusts: NA
Location:  38.1037°N, 105.445°W
Report Text: K1V6 271325Z AUTO 27013KT 10SM CLR 07/M06 A3029 RMK AO2
Loading
Personal Weather Stations






























Interactive Weather Map New forecast layout! Learn more

10-Day Weather Forecast

Advertisements
Track Severe Weather on mobile